Vattmanville, Texas
Current Conditions -  °F | °C
As of 10:56 AM on Saturday 22 Nov 2014 (Local Time) from KNQI Reporting Station
Light Rain Light Rain  
Wind Chill: 76°   Ceiling: 2800
Heat Index: 76°   Visibility: 10mi
Dew Point: 71°   Wind: 23mph
Humidity: 85%   Direction: 140°SE
Pressure: 29.93"   Gusts: 32mph
Location:  27.3193°N, 97.8839°W
Report Text: KNQI 221656Z AUTO 14020G28KT 10SM -RA SCT018 BKN028 OVC065 24/22 A2993 RMK AO2 PK WND 15028/1648 SLP131 P0001 T02440217 $
Loading
Personal Weather Stations






























Interactive Weather Map New forecast layout! Learn more

10-Day Weather Forecast

Advertisements
Track Severe Weather on mobile